Time;durP1;ratioP1;P1;durP2;ratioP2;P2;SDS_P1;SDS_P2;PMS_P1;PMS_P2;Temp;Humidity;BMP_temperature;BMP_pressure;BME280_temperature;BME280_humidity;BME280_pressure;Samples;Min_cycle;Max_cycle;Signal;HPM_P1;HPM_P2
2023/04/25 00:00:30;;;;;;;1999.90;999.90;;;28.20;96.70;;;;;;5040342;28;20764;-69
2023/04/25 00:02:58;;;;;;;1999.90;999.90;;;28.20;97.70;;;;;;5044592;28;20028;-69
2023/04/25 00:05:27;;;;;;;1999.90;999.90;;;28.40;97.50;;;;;;5035698;28;20500;-68
2023/04/25 00:07:54;;;;;;;1999.90;999.90;;;28.20;97.20;;;;;;5054572;28;20033;-68
2023/04/25 00:10:23;;;;;;;1999.90;999.90;;;28.10;97.60;;;;;;5051701;28;20048;-68
2023/04/25 00:12:50;;;;;;;1999.90;999.90;;;28.70;97.60;;;;;;5056156;28;20047;-68
2023/04/25 00:15:17;;;;;;;1999.90;999.90;;;29.40;97.20;;;;;;5043085;28;20016;-68
2023/04/25 00:17:45;;;;;;;1999.90;999.90;;;30.10;97.00;;;;;;5047539;28;20352;-68
2023/04/25 00:20:13;;;;;;;1999.90;999.90;;;30.40;95.00;;;;;;5045122;28;20036;-68
2023/04/25 00:22:40;;;;;;;1999.90;999.90;;;30.70;94.30;;;;;;5044094;28;20033;-68
2023/04/25 00:25:08;;;;;;;1999.90;999.90;;;30.50;94.40;;;;;;5047504;28;20044;-70
2023/04/25 00:27:35;;;;;;;1999.90;999.90;;;30.50;94.50;;;;;;5045928;28;20384;-68
2023/04/25 00:30:02;;;;;;;1999.90;999.90;;;30.30;94.40;;;;;;5043026;28;20634;-68
2023/04/25 00:32:30;;;;;;;1999.90;999.90;;;29.70;94.10;;;;;;5038289;28;20032;-68
2023/04/25 00:34:57;;;;;;;1999.90;999.90;;;29.10;94.60;;;;;;5036825;28;20041;-69
2023/04/25 00:37:25;;;;;;;1999.90;999.90;;;28.80;95.80;;;;;;5050671;28;20025;-68
2023/04/25 00:39:54;;;;;;;1999.90;999.90;;;28.90;95.20;;;;;;5043537;28;20491;-68
2023/04/25 00:42:22;;;;;;;1999.90;999.90;;;28.70;95.60;;;;;;5040734;28;20391;-68
2023/04/25 00:44:50;;;;;;;1999.90;999.90;;;29.10;95.40;;;;;;5036999;28;20025;-67
2023/04/25 00:47:18;;;;;;;1999.90;999.90;;;29.60;94.40;;;;;;5038974;28;20047;-68
2023/04/25 00:49:45;;;;;;;1999.90;999.90;;;30.10;93.80;;;;;;5038174;28;20021;-69
2023/04/25 00:52:12;;;;;;;1999.90;999.90;;;30.10;93.50;;;;;;5039775;28;20021;-68
2023/04/25 00:54:40;;;;;;;1999.90;999.90;;;29.20;94.10;;;;;;5037545;28;20035;-68
2023/04/25 00:57:07;;;;;;;1999.90;999.90;;;28.80;95.20;;;;;;5048952;28;20044;-68
2023/04/25 00:59:36;;;;;;;1999.90;999.90;;;29.10;94.50;;;;;;5040161;28;20025;-69
2023/04/25 01:02:07;;;;;;;1999.90;999.90;;;29.60;93.70;;;;;;5045346;28;20077;-70
2023/04/25 01:04:34;;;;;;;1999.90;999.90;;;29.70;93.50;;;;;;5046480;28;20029;-70
2023/04/25 01:07:02;;;;;;;1999.90;999.90;;;29.80;93.40;;;;;;5054782;28;20039;-70
2023/04/25 01:09:31;;;;;;;1999.90;999.90;;;30.00;93.10;;;;;;5048669;28;20053;-70
2023/04/25 01:12:00;;;;;;;1999.90;999.90;;;29.50;93.20;;;;;;5050644;28;20021;-70
2023/04/25 01:14:28;;;;;;;1999.90;999.90;;;29.60;93.10;;;;;;5046757;28;20028;-69
2023/04/25 01:16:55;;;;;;;1999.90;999.90;;;29.90;92.50;;;;;;5053127;28;20091;-69
2023/04/25 01:19:23;;;;;;;1999.90;999.90;;;30.20;92.50;;;;;;5046485;28;20593;-69
2023/04/25 01:21:51;;;;;;;1999.90;999.90;;;30.60;92.30;;;;;;5051098;28;20040;-68
2023/04/25 01:24:19;;;;;;;1999.90;999.90;;;30.70;92.40;;;;;;5050367;28;20498;-68
2023/04/25 01:26:50;;;;;;;1999.90;999.90;;;29.90;92.40;;;;;;5048372;28;20035;-68
2023/04/25 01:29:19;;;;;;;1999.90;999.90;;;29.60;91.70;;;;;;5045884;28;20085;-67
2023/04/25 01:31:47;;;;;;;1999.90;999.90;;;29.10;92.10;;;;;;5051024;28;20035;-67
2023/04/25 01:34:14;;;;;;;1999.90;999.90;;;29.50;92.30;;;;;;5049468;28;20048;-68
2023/04/25 01:36:42;;;;;;;1999.90;999.90;;;29.70;91.90;;;;;;5043467;28;20029;-70
2023/04/25 01:39:09;;;;;;;1999.90;999.90;;;29.50;92.20;;;;;;5047304;28;20032;-70
2023/04/25 01:41:37;;;;;;;1999.90;999.90;;;29.30;92.60;;;;;;5046546;28;20033;-69
2023/04/25 01:44:04;;;;;;;1999.90;999.90;;;29.60;91.70;;;;;;5050199;28;20032;-67
2023/04/25 01:46:33;;;;;;;1999.90;999.90;;;29.60;91.50;;;;;;5049229;28;20048;-69
2023/04/25 01:49:00;;;;;;;1999.90;999.90;;;29.40;91.40;;;;;;5059869;28;20475;-70
2023/04/25 01:51:28;;;;;;;1999.90;999.90;;;29.40;92.10;;;;;;5047127;28;20037;-69
2023/04/25 01:53:56;;;;;;;1999.90;999.90;;;29.70;91.50;;;;;;5039642;28;20075;-68
2023/04/25 01:56:24;;;;;;;1999.90;999.90;;;29.30;92.10;;;;;;5043143;28;20033;-68
2023/04/25 01:58:52;;;;;;;1999.90;999.90;;;29.50;92.50;;;;;;5042927;28;21062;-70
2023/04/25 02:01:19;;;;;;;1999.90;999.90;;;30.00;91.90;;;;;;5057784;28;20036;-68
2023/04/25 02:03:47;;;;;;;1999.90;999.90;;;30.20;91.40;;;;;;5045496;28;20419;-68
2023/04/25 02:06:14;;;;;;;1999.90;999.90;;;30.10;91.20;;;;;;5055975;28;20020;-69
2023/04/25 02:08:41;;;;;;;1999.90;999.90;;;29.90;91.30;;;;;;5046533;28;20029;-68
2023/04/25 02:11:09;;;;;;;1999.90;999.90;;;29.80;91.20;;;;;;5046668;28;20053;-69
2023/04/25 02:13:36;;;;;;;1999.90;999.90;;;29.80;91.50;;;;;;5046811;28;20029;-69
2023/04/25 02:16:03;;;;;;;1999.90;999.90;;;29.90;91.50;;;;;;5044590;28;20056;-69
2023/04/25 02:18:31;;;;;;;1999.90;999.90;;;29.80;90.80;;;;;;5045012;28;20021;-71
2023/04/25 02:21:02;;;;;;;1999.90;999.90;;;30.00;91.70;;;;;;5049256;28;20496;-70
2023/04/25 02:23:30;;;;;;;1999.90;999.90;;;30.10;91.30;;;;;;5046848;28;20028;-71
2023/04/25 02:25:57;;;;;;;1999.90;999.90;;;29.80;90.70;;;;;;5045947;28;20087;-71
2023/04/25 02:28:28;;;;;;;1999.90;999.90;;;30.00;91.40;;;;;;5048350;28;20028;-69
2023/04/25 02:30:55;;;;;;;1999.90;999.90;;;29.80;90.40;;;;;;5048305;28;20084;-70
2023/04/25 02:33:23;;;;;;;1999.90;999.90;;;29.70;91.50;;;;;;5047775;28;20037;-70
2023/04/25 02:35:50;;;;;;;1999.90;999.90;;;30.00;91.40;;;;;;5046942;28;20475;-69
2023/04/25 02:38:17;;;;;;;1999.90;999.90;;;30.00;90.50;;;;;;5054013;28;20036;-70
2023/04/25 02:40:44;;;;;;;1999.90;999.90;;;30.20;90.80;;;;;;5051659;28;20094;-70
2023/04/25 02:43:12;;;;;;;1999.90;999.90;;;30.50;91.00;;;;;;5057914;28;20091;-71
2023/04/25 02:45:39;;;;;;;1999.90;999.90;;;30.40;90.70;;;;;;5044795;28;20111;-71
2023/04/25 02:48:07;;;;;;;1999.90;999.90;;;30.30;90.50;;;;;;5051489;28;20037;-70
2023/04/25 02:50:34;;;;;;;1999.90;999.90;;;30.40;90.40;;;;;;5056628;28;20498;-70
2023/04/25 02:53:01;;;;;;;1999.90;999.90;;;30.50;91.00;;;;;;5051479;28;20033;-69
2023/04/25 02:55:29;;;;;;;1999.90;999.90;;;30.30;90.50;;;;;;5048866;28;20040;-68
2023/04/25 02:57:56;;;;;;;1999.90;999.90;;;29.70;90.30;;;;;;5054916;28;20026;-70
2023/04/25 03:00:23;;;;;;;1999.90;999.90;;;28.70;91.10;;;;;;5057063;28;20412;-68
2023/04/25 03:02:51;;;;;;;1999.90;999.90;;;27.90;91.90;;;;;;5054252;28;20087;-69
2023/04/25 03:05:19;;;;;;;1999.90;999.90;;;27.30;92.50;;;;;;5046862;28;20052;-69
2023/04/25 03:07:46;;;;;;;1999.90;999.90;;;27.40;93.50;;;;;;5060682;28;20039;-69
2023/04/25 03:10:13;;;;;;;1999.90;999.90;;;27.70;92.40;;;;;;5055983;28;20044;-69
2023/04/25 03:12:41;;;;;;;1999.90;999.90;;;28.10;92.40;;;;;;5046922;28;20028;-70
2023/04/25 03:15:08;;;;;;;1999.90;999.90;;;28.60;91.70;;;;;;5054691;28;20038;-70
2023/04/25 03:17:36;;;;;;;1999.90;999.90;;;28.40;91.40;;;;;;5057352;28;20021;-69
2023/04/25 03:20:04;;;;;;;1999.90;999.90;;;27.80;91.60;;;;;;5056454;28;20056;-69
2023/04/25 03:22:31;;;;;;;1999.90;999.90;;;27.40;92.40;;;;;;5053506;28;20025;-69
2023/04/25 03:25:01;;;;;;;1999.90;999.90;;;27.30;93.40;;;;;;5056824;28;20032;-69
2023/04/25 03:27:29;;;;;;;1999.90;999.90;;;27.40;93.60;;;;;;5052845;28;20407;-69
2023/04/25 03:29:56;;;;;;;1999.90;999.90;;;27.30;93.00;;;;;;5055666;28;20078;-69
2023/04/25 03:32:24;;;;;;;1999.90;999.90;;;27.50;93.30;;;;;;5053849;28;20026;-68
2023/04/25 03:34:51;;;;;;;1999.90;999.90;;;27.80;92.50;;;;;;5054645;28;20036;-69
2023/04/25 03:37:18;;;;;;;1999.90;999.90;;;28.00;92.70;;;;;;5053355;28;20489;-70
2023/04/25 03:39:46;;;;;;;1999.90;999.90;;;27.90;92.50;;;;;;5050590;28;20079;-69
2023/04/25 03:42:17;;;;;;;1999.90;999.90;;;27.70;92.50;;;;;;5048369;28;20047;-69
2023/04/25 03:44:44;;;;;;;1999.90;999.90;;;27.70;92.70;;;;;;5048303;28;20372;-70
2023/04/25 03:47:12;;;;;;;1999.90;999.90;;;27.70;92.80;;;;;;5070093;28;20029;-69
2023/04/25 03:49:39;;;;;;;1999.90;999.90;;;27.80;92.70;;;;;;5057903;28;20025;-69
2023/04/25 03:52:06;;;;;;;1999.90;999.90;;;27.90;92.80;;;;;;5051294;28;20059;-68
2023/04/25 03:54:34;;;;;;;1999.90;999.90;;;27.90;91.80;;;;;;5049765;28;20029;-69
2023/04/25 03:57:01;;;;;;;1999.90;999.90;;;27.80;92.60;;;;;;5062153;28;20060;-69
2023/04/25 03:59:29;;;;;;;1999.90;999.90;;;27.90;91.70;;;;;;5051297;28;20043;-70
2023/04/25 04:01:56;;;;;;;1999.90;999.90;;;28.10;92.00;;;;;;5068542;28;20033;-70
2023/04/25 04:04:23;;;;;;;1999.90;999.90;;;28.10;91.30;;;;;;5048448;28;20025;-70
2023/04/25 04:06:52;;;;;;;1999.90;999.90;;;28.00;91.40;;;;;;5054141;28;20116;-71
2023/04/25 04:09:20;;;;;;;1999.90;999.90;;;28.10;92.20;;;;;;5055752;28;20098;-70
2023/04/25 04:11:47;;;;;;;1999.90;999.90;;;27.60;91.80;;;;;;5058508;28;20894;-68
2023/04/25 04:14:15;;;;;;;1999.90;999.90;;;27.40;91.90;;;;;;5054585;28;20105;-69
2023/04/25 04:16:42;;;;;;;1999.90;999.90;;;27.10;92.20;;;;;;5056830;28;20032;-69
2023/04/25 04:19:10;;;;;;;1999.90;999.90;;;27.00;92.30;;;;;;5056788;28;20479;-68
2023/04/25 04:21:37;;;;;;;1999.90;999.90;;;27.00;92.20;;;;;;5054803;28;20045;-68
2023/04/25 04:24:05;;;;;;;1999.90;999.90;;;26.90;92.30;;;;;;5055650;28;20064;-70
2023/04/25 04:26:34;;;;;;;1999.90;999.90;;;26.70;92.70;;;;;;5053620;28;20032;-68
2023/04/25 04:29:01;;;;;;;1999.90;999.90;;;26.70;92.90;;;;;;5053052;28;20037;-68
2023/04/25 04:31:29;;;;;;;1999.90;999.90;;;26.80;92.90;;;;;;5052892;28;20470;-69
2023/04/25 04:33:57;;;;;;;1999.90;999.90;;;27.00;92.90;;;;;;5043274;28;20029;-69
2023/04/25 04:36:26;;;;;;;1999.90;999.90;;;27.10;92.20;;;;;;5051760;28;20028;-69
2023/04/25 04:38:53;;;;;;;1999.90;999.90;;;27.10;92.30;;;;;;5056650;28;20024;-69
2023/04/25 04:41:21;;;;;;;1999.90;999.90;;;27.10;92.80;;;;;;5053188;28;20613;-70
2023/04/25 04:43:48;;;;;;;1999.90;999.90;;;27.20;92.50;;;;;;5054925;28;20036;-69
2023/04/25 04:46:16;;;;;;;1999.90;999.90;;;27.30;92.30;;;;;;5056483;28;20063;-69
2023/04/25 04:48:44;;;;;;;1999.90;999.90;;;27.20;92.30;;;;;;5055964;28;20025;-69
2023/04/25 04:51:11;;;;;;;1999.90;999.90;;;27.20;92.10;;;;;;5048931;28;20036;-69
2023/04/25 04:53:38;;;;;;;1999.90;999.90;;;27.10;92.30;;;;;;5047327;28;20100;-68
2023/04/25 04:56:06;;;;;;;1999.90;999.90;;;27.00;93.10;;;;;;5051954;28;20614;-69
2023/04/25 04:58:35;;;;;;;1999.90;999.90;;;26.90;92.10;;;;;;5049226;28;20048;-69
2023/04/25 05:01:02;;;;;;;1999.90;999.90;;;26.70;92.70;;;;;;5047842;28;20581;-69
2023/04/25 05:03:30;;;;;;;1999.90;999.90;;;26.50;92.40;;;;;;5049342;28;20025;-69
2023/04/25 05:05:57;;;;;;;1999.90;999.90;;;26.30;93.30;;;;;;5047911;28;20116;-69
2023/04/25 05:08:24;;;;;;;1999.90;999.90;;;26.10;92.80;;;;;;5050237;28;20043;-69
2023/04/25 05:10:52;;;;;;;1999.90;999.90;;;25.80;92.90;;;;;;5050219;28;20140;-70
2023/04/25 05:13:19;;;;;;;1999.90;999.90;;;25.80;93.20;;;;;;5050365;28;20064;-69
2023/04/25 05:15:50;;;;;;;1999.90;999.90;;;25.70;94.00;;;;;;5055718;28;20037;-69
2023/04/25 05:18:17;;;;;;;1999.90;999.90;;;25.80;93.60;;;;;;5055367;28;20068;-70
2023/04/25 05:20:44;;;;;;;1999.90;999.90;;;25.90;93.60;;;;;;5050363;28;20668;-68
2023/04/25 05:23:12;;;;;;;1999.90;999.90;;;26.00;93.60;;;;;;5044522;28;20112;-69
2023/04/25 05:25:39;;;;;;;1999.90;999.90;;;26.00;93.50;;;;;;5048645;28;20096;-68
2023/04/25 05:28:06;;;;;;;1999.90;999.90;;;26.10;93.20;;;;;;5052729;28;20021;-69
2023/04/25 05:30:35;;;;;;;1999.90;999.90;;;26.20;93.30;;;;;;5051117;28;20029;-68
2023/04/25 05:33:02;;;;;;;1999.90;999.90;;;26.30;93.30;;;;;;5055455;28;20032;-68
2023/04/25 05:35:30;;;;;;;1999.90;999.90;;;26.30;93.20;;;;;;5046207;28;20505;-68
2023/04/25 05:37:57;;;;;;;1999.90;999.90;;;26.30;93.10;;;;;;5055418;28;20025;-69
2023/04/25 05:40:25;;;;;;;1999.90;999.90;;;26.30;93.20;;;;;;5049409;28;20082;-70
2023/04/25 05:42:52;;;;;;;1999.90;999.90;;;26.30;93.10;;;;;;5049123;28;20075;-68
2023/04/25 05:45:19;;;;;;;1999.90;999.90;;;26.30;93.00;;;;;;5052247;28;20115;-69
2023/04/25 05:47:47;;;;;;;1999.90;999.90;;;26.30;93.30;;;;;;5051241;28;20108;-68
2023/04/25 05:50:14;;;;;;;1999.90;999.90;;;26.20;93.10;;;;;;5049867;28;20027;-68
2023/04/25 05:52:41;;;;;;;1999.90;999.90;;;26.20;93.10;;;;;;5051598;28;20562;-68
2023/04/25 05:55:09;;;;;;;1999.90;999.90;;;26.30;93.20;;;;;;5050171;28;20032;-69
2023/04/25 05:57:36;;;;;;;1999.90;999.90;;;26.30;93.20;;;;;;5060729;28;20051;-70
2023/04/25 06:00:08;;;;;;;1999.90;999.90;;;26.30;93.30;;;;;;5057254;28;20094;-70
2023/04/25 06:02:36;;;;;;;1999.90;999.90;;;26.20;93.10;;;;;;5050638;28;20135;-68
2023/04/25 06:05:27;;;;;;;1999.90;999.90;;;26.10;93.20;;;;;;5052684;28;20032;-68
2023/04/25 06:07:55;;;;;;;1999.90;999.90;;;25.90;93.30;;;;;;5055768;28;20025;-70
2023/04/25 06:10:22;;;;;;;1999.90;999.90;;;25.80;93.70;;;;;;5053922;28;20084;-69
2023/04/25 06:12:50;;;;;;;1999.90;999.90;;;25.80;93.70;;;;;;5056432;28;20036;-69
2023/04/25 06:15:17;;;;;;;1999.90;999.90;;;25.60;93.70;;;;;;5056502;28;20517;-68
2023/04/25 06:17:44;;;;;;;1999.90;999.90;;;25.40;93.70;;;;;;5053236;28;20039;-69
2023/04/25 06:20:12;;;;;;;1999.90;999.90;;;25.20;94.00;;;;;;5056732;28;20076;-68
2023/04/25 06:22:39;;;;;;;1999.90;999.90;;;24.90;94.20;;;;;;5057248;28;20100;-68
2023/04/25 06:25:07;;;;;;;1999.90;999.90;;;24.70;94.30;;;;;;5055242;28;20483;-69
2023/04/25 06:27:37;;;;;;;1999.90;999.90;;;24.60;94.20;;;;;;5061035;28;20031;-68
2023/04/25 06:30:06;;;;;;;1999.90;999.90;;;24.50;94.40;;;;;;5050328;28;20032;-68
2023/04/25 06:32:34;;;;;;;1999.90;999.90;;;24.40;94.60;;;;;;5051719;28;20029;-68
2023/04/25 06:35:01;;;;;;;1999.90;999.90;;;24.30;94.60;;;;;;5064481;28;20072;-69
2023/04/25 06:37:29;;;;;;;1999.90;999.90;;;24.30;95.10;;;;;;5054000;28;20482;-70
2023/04/25 06:39:56;;;;;;;1999.90;999.90;;;24.20;95.20;;;;;;5052999;28;20033;-68
2023/04/25 06:42:23;;;;;;;1999.90;999.90;;;24.20;95.20;;;;;;5055956;28;20608;-68
2023/04/25 06:44:51;;;;;;;1999.90;999.90;;;24.10;95.10;;;;;;5064034;28;21138;-68
2023/04/25 06:47:18;;;;;;;1999.90;999.90;;;24.00;95.10;;;;;;5060193;28;20024;-71
2023/04/25 06:49:45;;;;;;;1999.90;999.90;;;23.90;95.60;;;;;;5060723;28;20436;-68
2023/04/25 06:52:13;;;;;;;1999.90;999.90;;;23.90;95.40;;;;;;5046128;28;20037;-68
2023/04/25 06:54:40;;;;;;;1999.90;999.90;;;23.90;95.50;;;;;;5050104;28;20025;-70
2023/04/25 06:57:07;;;;;;;1999.90;999.90;;;23.80;95.80;;;;;;5055967;28;20021;-68
2023/04/25 06:59:35;;;;;;;1999.90;999.90;;;23.80;96.00;;;;;;5052909;28;20368;-69
2023/04/25 07:02:03;;;;;;;1999.90;999.90;;;23.70;96.00;;;;;;5050338;28;20104;-69
2023/04/25 07:04:30;;;;;;;1999.90;999.90;;;23.70;96.10;;;;;;5049785;28;20025;-69
2023/04/25 07:06:58;;;;;;;1999.90;999.90;;;23.50;96.30;;;;;;5049431;28;20036;-71
2023/04/25 07:09:25;;;;;;;1999.90;999.90;;;23.50;96.30;;;;;;5052445;28;20056;-71
2023/04/25 07:11:52;;;;;;;1999.90;999.90;;;23.40;96.70;;;;;;5062311;28;20036;-71
2023/04/25 07:14:20;;;;;;;1999.90;999.90;;;23.30;97.00;;;;;;5049581;28;20483;-71
2023/04/25 07:16:47;;;;;;;1999.90;999.90;;;23.20;98.00;;;;;;5049098;28;20031;-70
2023/04/25 07:19:15;;;;;;;1999.90;999.90;;;23.10;98.40;;;;;;5054515;28;20029;-71
2023/04/25 07:21:45;;;;;;;1999.90;999.90;;;23.00;99.30;;;;;;5053065;28;20037;-71
2023/04/25 07:24:12;;;;;;;1999.90;999.90;;;22.80;99.80;;;;;;5052442;28;20017;-69
2023/04/25 07:26:40;;;;;;;1999.90;999.90;;;22.60;99.90;;;;;;5059666;28;20479;-71
2023/04/25 07:29:07;;;;;;;1999.90;999.90;;;22.40;99.90;;;;;;5058389;28;20202;-74
2023/04/25 07:31:34;;;;;;;1999.90;999.90;;;22.30;99.90;;;;;;5055246;28;20035;-73
2023/04/25 07:34:02;;;;;;;1999.90;999.90;;;22.20;99.90;;;;;;5057175;28;20107;-70
2023/04/25 07:36:30;;;;;;;1999.90;999.90;;;22.10;99.90;;;;;;5054910;28;20029;-69
2023/04/25 07:38:58;;;;;;;1999.90;999.90;;;21.90;99.90;;;;;;5053679;28;20044;-71
2023/04/25 07:41:25;;;;;;;1999.90;999.90;;;21.80;99.90;;;;;;5058227;28;20476;-71
2023/04/25 07:43:52;;;;;;;1999.90;999.90;;;21.70;99.90;;;;;;5054695;28;20032;-69
2023/04/25 07:46:20;;;;;;;1999.90;999.90;;;21.60;99.90;;;;;;5054783;28;20036;-69
2023/04/25 07:48:47;;;;;;;1999.90;999.90;;;21.50;99.90;;;;;;5047691;28;21522;-73
2023/04/25 07:51:14;;;;;;;1999.90;999.90;;;21.40;99.90;;;;;;5051997;28;20032;-70
2023/04/25 07:53:42;;;;;;;1999.90;999.90;;;21.30;99.90;;;;;;5045244;28;20032;-70
2023/04/25 07:56:09;;;;;;;1999.90;999.90;;;21.30;99.90;;;;;;5054816;28;20035;-70
2023/04/25 07:58:36;;;;;;;1999.90;999.90;;;21.20;99.90;;;;;;5056025;28;20040;-73
2023/04/25 08:01:04;;;;;;;1999.90;999.90;;;21.10;99.90;;;;;;5053380;28;20040;-72
2023/04/25 08:03:31;;;;;;;1999.90;999.90;;;21.00;99.90;;;;;;5052072;28;20572;-70
2023/04/25 08:06:02;;;;;;;1999.90;999.90;;;20.90;99.90;;;;;;5051998;28;20048;-73
2023/04/25 08:08:29;;;;;;;1999.90;999.90;;;20.90;99.90;;;;;;5051646;28;20454;-71
2023/04/25 08:10:56;;;;;;;1999.90;999.90;;;20.80;99.90;;;;;;5053964;28;20036;-71
2023/04/25 08:13:24;;;;;;;1999.90;999.90;;;20.80;99.90;;;;;;5049613;28;20032;-70
2023/04/25 08:15:51;;;;;;;1999.90;999.90;;;20.70;99.90;;;;;;5048983;28;20031;-70
2023/04/25 08:18:18;;;;;;;1999.90;999.90;;;20.70;99.90;;;;;;5050542;28;20044;-70
2023/04/25 08:20:46;;;;;;;1999.90;999.90;;;20.60;99.90;;;;;;5054704;28;20076;-73
2023/04/25 08:23:14;;;;;;;1999.90;999.90;;;20.60;99.90;;;;;;5048079;28;20742;-74
2023/04/25 08:25:41;;;;;;;1999.90;999.90;;;20.40;99.90;;;;;;5045183;28;20107;-74
2023/04/25 08:28:09;;;;;;;1999.90;999.90;;;20.40;99.90;;;;;;5064437;28;20480;-74
2023/04/25 08:30:38;;;;;;;1999.90;999.90;;;20.40;99.90;;;;;;5045424;28;20028;-71
2023/04/25 08:33:05;;;;;;;1999.90;999.90;;;20.30;99.90;;;;;;5050496;28;20436;-70
2023/04/25 08:35:33;;;;;;;1999.90;999.90;;;20.30;99.90;;;;;;5046340;28;20033;-71
2023/04/25 08:38:01;;;;;;;1999.90;999.90;;;20.30;99.90;;;;;;5049386;28;20025;-72
2023/04/25 08:40:30;;;;;;;1999.90;999.90;;;20.20;99.90;;;;;;5052394;28;20047;-72
2023/04/25 08:43:03;;;;;;;1999.90;999.90;;;20.10;99.90;;;;;;5052207;28;20036;-71
2023/04/25 08:45:32;;;;;;;1999.90;999.90;;;20.10;99.90;;;;;;5049713;28;20459;-72
2023/04/25 08:48:00;;;;;;;1999.90;999.90;;;20.00;99.90;;;;;;5053306;28;20033;-72
2023/04/25 08:50:28;;;;;;;1999.90;999.90;;;20.00;99.90;;;;;;5048567;28;20056;-72
2023/04/25 08:53:01;;;;;;;1999.90;999.90;;;19.90;99.90;;;;;;5050549;28;20112;-73
2023/04/25 08:55:29;;;;;;;1999.90;999.90;;;19.90;99.90;;;;;;5049062;28;20143;-71
2023/04/25 08:57:58;;;;;;;1999.90;999.90;;;19.80;99.90;;;;;;5050482;28;20030;-71
2023/04/25 09:00:25;;;;;;;1999.90;999.90;;;19.80;99.90;;;;;;5058574;28;20045;-71
2023/04/25 09:02:54;;;;;;;1999.90;999.90;;;19.80;99.90;;;;;;5053006;28;20123;-70
2023/04/25 09:05:22;;;;;;;1999.90;999.90;;;19.70;99.90;;;;;;5056665;28;20043;-72
2023/04/25 09:07:50;;;;;;;1999.90;999.90;;;19.60;99.90;;;;;;5063443;28;20033;-70
2023/04/25 09:10:17;;;;;;;1999.90;999.90;;;19.60;99.90;;;;;;5052079;28;20110;-72
2023/04/25 09:12:45;;;;;;;1999.90;999.90;;;19.50;99.90;;;;;;5056081;28;20491;-70
2023/04/25 09:15:14;;;;;;;1999.90;999.90;;;19.40;99.90;;;;;;5056009;28;20032;-70
2023/04/25 09:17:44;;;;;;;1999.90;999.90;;;19.30;99.90;;;;;;5061034;28;20132;-71
2023/04/25 09:20:13;;;;;;;1999.90;999.90;;;19.30;99.90;;;;;;5055752;28;20029;-72
2023/04/25 09:22:42;;;;;;;1999.90;999.90;;;19.30;99.90;;;;;;5050965;28;20033;-72
2023/04/25 09:25:12;;;;;;;1999.90;999.90;;;19.20;99.90;;;;;;5052920;28;20067;-71
2023/04/25 09:28:03;;;;;;;1999.90;999.90;;;19.20;99.90;;;;;;5053670;28;20110;-73
2023/04/25 09:30:36;;;;;;;1999.90;999.90;;;19.10;99.90;;;;;;5053568;28;20044;-70
2023/04/25 09:33:13;;;;;;;1999.90;999.90;;;19.00;99.90;;;;;;5051563;28;20025;-72
2023/04/25 09:35:52;;;;;;;1999.90;999.90;;;18.90;99.90;;;;;;5049235;28;20025;-70
2023/04/25 09:38:21;;;;;;;1999.90;999.90;;;18.90;99.90;;;;;;5050883;28;20488;-71
2023/04/25 09:40:49;;;;;;;1999.90;999.90;;;18.80;99.90;;;;;;5045015;28;20137;-72
2023/04/25 09:43:22;;;;;;;1999.90;999.90;;;18.70;99.90;;;;;;5050464;28;20472;-70
2023/04/25 09:45:51;;;;;;;1999.90;999.90;;;18.70;99.90;;;;;;5055870;28;20122;-70
2023/04/25 09:48:23;;;;;;;1999.90;999.90;;;18.60;99.90;;;;;;5059391;28;20028;-72
2023/04/25 09:51:16;;;;;;;1999.90;999.90;;;18.50;99.90;;;;;;5058218;28;20028;-71
2023/04/25 09:53:50;;;;;;;1999.90;999.90;;;18.50;99.90;;;;;;5047895;28;20033;-70
2023/04/25 09:56:20;;;;;;;1999.90;999.90;;;18.50;99.90;;;;;;5057832;28;20510;-71
2023/04/25 09:58:50;;;;;;;1999.90;999.90;;;18.50;99.90;;;;;;5041725;28;20153;-70
2023/04/25 10:01:17;;;;;;;1999.90;999.90;;;18.50;99.90;;;;;;5041580;28;20182;-69
2023/04/25 10:03:49;;;;;;;1999.90;999.90;;;18.50;99.90;;;;;;5039428;28;20112;-69
2023/04/25 10:06:21;;;;;;;1999.90;999.90;;;18.50;99.90;;;;;;5043632;28;20107;-71
2023/04/25 10:08:52;;;;;;;1999.90;999.90;;;18.40;99.90;;;;;;5053469;28;20013;-70
2023/04/25 10:11:19;;;;;;;1999.90;999.90;;;18.40;99.90;;;;;;5061029;28;20357;-70
2023/04/25 10:13:47;;;;;;;1999.90;999.90;;;18.30;99.90;;;;;;5052165;28;20103;-69
2023/04/25 10:16:16;;;;;;;1999.90;999.90;;;18.20;99.90;;;;;;5053601;28;20045;-71
2023/04/25 10:18:43;;;;;;;1999.90;999.90;;;18.20;99.90;;;;;;5052112;28;20033;-69
2023/04/25 10:21:13;;;;;;;1999.90;999.90;;;18.10;99.90;;;;;;5049089;28;20037;-70
2023/04/25 10:23:42;;;;;;;1999.90;999.90;;;18.00;99.90;;;;;;5052092;28;20044;-73
2023/04/25 10:26:12;;;;;;;1999.90;999.90;;;18.00;99.90;;;;;;5055134;28;20029;-72
2023/04/25 10:29:02;;;;;;;1999.90;999.90;;;17.90;99.90;;;;;;5055231;28;20029;-72
2023/04/25 10:31:34;;;;;;;1999.90;999.90;;;17.80;99.90;;;;;;5060774;28;20025;-72
2023/04/25 10:34:01;;;;;;;1999.90;999.90;;;17.80;99.90;;;;;;5048888;28;20114;-73
2023/04/25 10:36:32;;;;;;;1999.90;999.90;;;17.80;99.90;;;;;;5055651;28;20048;-72
2023/04/25 10:39:08;;;;;;;1999.90;999.90;;;17.80;99.90;;;;;;5049011;28;21909;-71
2023/04/25 10:41:58;;;;;;;1999.90;999.90;;;17.80;99.90;;;;;;5051820;28;20067;-71
2023/04/25 10:44:30;;;;;;;1999.90;999.90;;;17.70;99.90;;;;;;5043746;28;20032;-72
2023/04/25 10:47:01;;;;;;;1999.90;999.90;;;17.70;99.90;;;;;;5055102;28;20408;-70
2023/04/25 10:49:41;;;;;;;1999.90;999.90;;;17.60;99.90;;;;;;5054954;28;20036;-71
2023/04/25 10:52:36;;;;;;;1999.90;999.90;;;17.60;99.90;;;;;;5049787;28;20040;-70
2023/04/25 10:55:07;;;;;;;1999.90;999.90;;;17.60;99.90;;;;;;5049028;28;20024;-70
2023/04/25 10:57:47;;;;;;;1999.90;999.90;;;17.50;99.90;;;;;;5056690;28;20040;-70
2023/04/25 11:00:26;;;;;;;1999.90;999.90;;;17.50;99.90;;;;;;5054884;28;20059;-71
2023/04/25 11:02:59;;;;;;;1999.90;999.90;;;17.50;99.90;;;;;;5052997;28;20068;-70
2023/04/25 11:05:35;;;;;;;1999.90;999.90;;;17.40;99.90;;;;;;5053538;28;20103;-70
2023/04/25 11:08:03;;;;;;;1999.90;999.90;;;17.40;99.90;;;;;;5046210;28;20096;-70
2023/04/25 11:10:32;;;;;;;1999.90;999.90;;;17.40;99.90;;;;;;5052712;28;20057;-70
2023/04/25 11:13:00;;;;;;;1999.90;999.90;;;17.40;99.90;;;;;;5052665;28;20037;-69
2023/04/25 11:15:28;;;;;;;1999.90;999.90;;;17.40;99.90;;;;;;5054152;28;20025;-69
2023/04/25 11:17:56;;;;;;;1999.90;999.90;;;17.40;99.90;;;;;;5052781;28;20040;-70
2023/04/25 11:20:28;;;;;;;1999.90;999.90;;;17.30;99.90;;;;;;5051298;28;20120;-71
2023/04/25 11:22:59;;;;;;;1999.90;999.90;;;17.20;99.90;;;;;;5046128;28;20038;-72
2023/04/25 11:25:28;;;;;;;1999.90;999.90;;;17.20;99.90;;;;;;5051394;28;20029;-69
2023/04/25 11:27:57;;;;;;;1999.90;999.90;;;17.10;99.90;;;;;;5052458;28;20426;-71
2023/04/25 11:30:26;;;;;;;1999.90;999.90;;;17.00;99.90;;;;;;5041000;28;20124;-70
2023/04/25 11:32:54;;;;;;;1999.90;999.90;;;17.00;99.90;;;;;;5039923;28;20427;-71
2023/04/25 11:35:22;;;;;;;1999.90;999.90;;;16.90;99.90;;;;;;5047716;28;20556;-70
2023/04/25 11:37:50;;;;;;;1999.90;999.90;;;16.90;99.90;;;;;;5043346;28;20046;-70
2023/04/25 11:40:18;;;;;;;1999.90;999.90;;;16.80;99.90;;;;;;5043689;28;20128;-69
2023/04/25 11:42:47;;;;;;;1999.90;999.90;;;16.80;99.90;;;;;;5049482;28;20067;-72
2023/04/25 11:45:15;;;;;;;1999.90;999.90;;;16.80;99.90;;;;;;5045076;28;20453;-71
2023/04/25 11:47:43;;;;;;;1999.90;999.90;;;16.80;99.90;;;;;;5055745;28;22182;-72
2023/04/25 11:50:10;;;;;;;1999.90;999.90;;;16.70;99.90;;;;;;5050284;28;20029;-72
2023/04/25 11:52:42;;;;;;;1999.90;999.90;;;16.70;99.90;;;;;;5050386;28;20071;-70
2023/04/25 11:55:11;;;;;;;1999.90;999.90;;;16.60;99.90;;;;;;5056234;28;20025;-72
2023/04/25 11:57:43;;;;;;;1999.90;999.90;;;16.60;99.90;;;;;;5051203;28;20148;-71
2023/04/25 12:00:19;;;;;;;1999.90;999.90;;;16.60;99.90;;;;;;5055838;28;20040;-71
2023/04/25 12:02:51;;;;;;;1999.90;999.90;;;16.60;99.90;;;;;;5051675;28;20047;-72
2023/04/25 12:05:20;;;;;;;1999.90;999.90;;;16.60;99.90;;;;;;5050251;28;20021;-71